[2024-11-05 00:00:00, 2024-11-05 23:59:59] previous next
| time | temperature | air pressure | humidity | solar radiation | wind speed |
|---|---|---|---|---|---|
| 2024-11-05 07:40:08 | 2.2 | 1014.1 | 99.0 | 16.2 | 0.0 |
| 2024-11-05 08:00:06 | 3.9 | 1014.4 | 99.0 | 20.3 | 0.0 |
| 2024-11-05 08:20:06 | 7.6 | 1014.7 | 99.0 | 23.6 | 0.0 |
| 2024-11-05 08:40:07 | 7.5 | 1014.4 | 99.0 | 26.5 | 0.0 |
| 2024-11-05 09:00:06 | 8.8 | 1014.7 | 99.0 | 29.8 | 0.0 |
| 2024-11-05 09:20:08 | 7.6 | 1014.7 | 99.0 | 32.2 | 1.3 |
| 2024-11-05 09:40:06 | 8.7 | 1015.1 | 99.0 | 34.9 | 1.7 |
| 2024-11-05 10:00:05 | 8.8 | 1015.1 | 99.0 | 36.7 | 0.0 |
| 2024-11-05 10:20:07 | 9.8 | 1014.7 | 99.0 | 56.9 | 0.0 |
| 2024-11-05 10:40:08 | 10.2 | 1014.7 | 99.0 | 81.5 | 0.0 |
| 2024-11-05 11:00:06 | 10.4 | 1015.1 | 86.0 | 116.2 | 0.0 |
| 2024-11-05 11:20:05 | 12.6 | 1014.7 | 82.0 | 156.8 | 0.0 |
| 2024-11-05 11:40:06 | 12.9 | 1014.7 | 79.0 | 188.2 | 1.4 |
| 2024-11-05 12:00:05 | 14.2 | 1014.7 | 76.0 | 201.8 | 1.0 |
| 2024-11-05 12:20:05 | 13.2 | 1014.4 | 79.0 | 200.8 | 0.0 |
| 2024-11-05 12:40:05 | 14.8 | 1014.7 | 73.0 | 200.6 | 2.4 |
| 2024-11-05 13:00:06 | 15.0 | 1014.1 | 76.0 | 191.3 | 0.6 |
| 2024-11-05 13:24:09 | 14.2 | 1014.7 | 78.0 | 181.9 | 0.1 |
| 2024-11-05 13:44:10 | 14.7 | 1014.4 | 75.0 | 168.0 | 1.1 |
| 2024-11-05 14:04:09 | 12.3 | 1014.7 | 86.0 | 145.9 | 0.0 |
| 2024-11-05 14:24:09 | 12.5 | 1014.7 | 85.0 | 123.0 | 0.0 |
CSV export: /station/IWELLEN5/data?period=20241105T000000/20241105T235959&format=csv&tz=GMT